Time;durP1;ratioP1;P1;durP2;ratioP2;P2;SDS_P1;SDS_P2;PMS_P1;PMS_P2;Temp;Humidity;BMP_temperature;BMP_pressure;BME280_temperature;BME280_humidity;BME280_pressure;Samples;Min_cycle;Max_cycle;Signal;HPM_P1;HPM_P2
2023/08/17 00:01:16;;;;;;;0.50;0.30;;;;;;;20.38;100.00;100391.63;5016109;28;20473;-51
2023/08/17 00:03:42;;;;;;;0.50;0.20;;;;;;;20.09;100.00;100393.59;5015363;28;20556;-51
2023/08/17 00:06:09;;;;;;;0.50;0.20;;;;;;;20.35;100.00;100395.41;5015552;28;20838;-51
2023/08/17 00:08:35;;;;;;;0.47;0.20;;;;;;;20.54;100.00;100395.06;5015642;28;20449;-51
2023/08/17 00:11:02;;;;;;;0.50;0.20;;;;;;;20.49;100.00;100394.50;5016030;28;20453;-51
2023/08/17 00:13:28;;;;;;;0.50;0.27;;;;;;;20.50;100.00;100398.06;5015847;28;20943;-51
2023/08/17 00:15:55;;;;;;;0.50;0.20;;;;;;;20.50;100.00;100396.22;5015918;28;20454;-51
2023/08/17 00:18:21;;;;;;;0.50;0.20;;;;;;;20.48;100.00;100394.63;5015803;28;20467;-51
2023/08/17 00:20:48;;;;;;;0.50;0.20;;;;;;;20.43;100.00;100407.56;5015644;28;20452;-51
2023/08/17 00:23:14;;;;;;;0.40;0.30;;;;;;;20.34;100.00;100409.88;5015505;28;20514;-51
2023/08/17 00:25:41;;;;;;;0.40;0.20;;;;;;;20.43;100.00;100410.28;5015558;28;20950;-51
2023/08/17 00:28:07;;;;;;;0.50;0.20;;;;;;;20.24;100.00;100403.34;5015519;28;20426;-51
2023/08/17 00:30:36;;;;;;;0.40;0.20;;;;;;;20.21;100.00;100406.28;5015068;28;20525;-51
2023/08/17 00:33:02;;;;;;;0.50;0.30;;;;;;;20.21;100.00;100403.56;5014925;28;20455;-51
2023/08/17 00:35:29;;;;;;;0.50;0.20;;;;;;;20.37;100.00;100409.66;5012535;28;20518;-51
2023/08/17 00:37:56;;;;;;;0.50;0.20;;;;;;;20.49;100.00;100409.84;5002165;28;20428;-51
2023/08/17 00:40:22;;;;;;;0.40;0.20;;;;;;;20.44;100.00;100407.47;5015903;28;20445;-51
2023/08/17 00:42:49;;;;;;;0.40;0.30;;;;;;;20.53;100.00;100400.56;5005953;28;20546;-51
2023/08/17 00:45:16;;;;;;;0.50;0.20;;;;;;;20.58;100.00;100402.00;5015845;28;20449;-51
2023/08/17 00:47:42;;;;;;;0.40;0.30;;;;;;;20.28;100.00;100402.19;5014999;28;20463;-51
2023/08/17 00:50:11;;;;;;;0.47;0.20;;;;;;;20.38;100.00;100391.63;5014997;28;20543;-51
2023/08/17 00:52:37;;;;;;;0.50;0.20;;;;;;;20.48;100.00;100389.22;5014771;28;20985;-51
2023/08/17 00:55:05;;;;;;;0.50;0.20;;;;;;;20.55;100.00;100390.50;5015220;28;20480;-51
2023/08/17 00:57:33;;;;;;;0.40;0.20;;;;;;;20.50;100.00;100390.84;5015357;28;20484;-51
2023/08/17 01:00:00;;;;;;;0.40;0.20;;;;;;;20.53;100.00;100387.06;5015357;28;20862;-51
2023/08/17 01:02:31;;;;;;;0.50;0.20;;;;;;;20.50;100.00;100390.84;5014994;28;20886;-51
2023/08/17 01:04:58;;;;;;;0.50;0.20;;;;;;;20.51;100.00;100384.47;5015512;28;20819;-51
2023/08/17 01:07:24;;;;;;;0.40;0.20;;;;;;;20.57;100.00;100388.59;5015325;28;20545;-51
2023/08/17 01:09:52;;;;;;;0.40;0.20;;;;;;;20.27;100.00;100389.66;5016029;28;20449;-50
2023/08/17 01:12:29;;;;;;;0.40;0.20;;;;;;;20.36;100.00;100390.88;5014866;28;20522;-51
2023/08/17 01:15:00;;;;;;;0.50;0.20;;;;;;;20.28;100.00;100383.28;5014759;28;20543;-51
2023/08/17 01:17:39;;;;;;;0.50;0.20;;;;;;;20.28;100.00;100390.50;5015401;28;20524;-51
2023/08/17 01:20:09;;;;;;;0.50;0.20;;;;;;;20.28;100.00;100388.69;5014812;28;20919;-51
2023/08/17 01:22:36;;;;;;;0.40;0.20;;;;;;;20.35;100.00;100387.31;5014754;28;20534;-49
2023/08/17 01:25:03;;;;;;;0.50;0.20;;;;;;;20.35;100.00;100378.34;5014872;28;20456;-51
2023/08/17 01:27:37;;;;;;;0.40;0.20;;;;;;;20.36;100.00;100370.13;5014890;28;20427;-51
2023/08/17 01:30:04;;;;;;;0.50;0.20;;;;;;;20.34;100.00;100369.38;5014299;28;20445;-53
2023/08/17 01:32:41;;;;;;;0.40;0.20;;;;;;;20.39;100.00;100369.91;5014012;28;20512;-49
2023/08/17 01:35:32;;;;;;;0.50;0.30;;;;;;;20.42;100.00;100363.47;5010717;28;20795;-48
2023/08/17 01:38:04;;;;;;;0.40;0.20;;;;;;;20.34;100.00;100361.28;4990162;28;20474;-48
2023/08/17 01:40:32;;;;;;;0.50;0.30;;;;;;;20.27;100.00;100364.47;5004052;28;20449;-48
2023/08/17 01:43:01;;;;;;;0.50;0.30;;;;;;;20.21;100.00;100370.31;4998952;28;20484;-49
2023/08/17 01:45:28;;;;;;;0.40;0.20;;;;;;;20.32;100.00;100365.06;5004200;28;20513;-50
2023/08/17 01:47:57;;;;;;;0.40;0.20;;;;;;;20.25;100.00;100356.50;5011968;28;20517;-49
2023/08/17 01:50:23;;;;;;;0.40;0.20;;;;;;;20.45;100.00;100363.28;5012765;28;20448;-49
2023/08/17 01:52:51;;;;;;;0.40;0.20;;;;;;;20.44;100.00;100358.84;5012687;28;20563;-49
2023/08/17 01:55:18;;;;;;;0.40;0.20;;;;;;;20.53;100.00;100362.75;5012803;28;20482;-49
2023/08/17 01:57:45;;;;;;;0.40;0.20;;;;;;;20.27;100.00;100356.38;5012687;28;20501;-49
2023/08/17 02:00:12;;;;;;;0.50;0.20;;;;;;;20.28;100.00;100358.97;5012663;28;20858;-49
2023/08/17 02:02:38;;;;;;;0.47;0.20;;;;;;;20.26;100.00;100366.31;5013016;28;20965;-51
2023/08/17 02:05:05;;;;;;;0.43;0.20;;;;;;;20.24;100.00;100362.00;5012471;28;20451;-50
2023/08/17 02:07:32;;;;;;;0.40;0.20;;;;;;;20.38;100.00;100359.22;5012669;28;20431;-50
2023/08/17 02:09:58;;;;;;;0.40;0.20;;;;;;;20.58;100.00;100364.19;5012547;28;20945;-50
2023/08/17 02:12:25;;;;;;;0.40;0.20;;;;;;;20.68;100.00;100361.69;5012397;28;20504;-50
2023/08/17 02:14:53;;;;;;;0.40;0.20;;;;;;;20.56;100.00;100370.63;5012551;28;20478;-50
2023/08/17 02:17:21;;;;;;;0.40;0.30;;;;;;;20.72;100.00;100368.63;5012208;28;20523;-49
2023/08/17 02:19:48;;;;;;;0.40;0.20;;;;;;;20.75;100.00;100362.13;5012653;28;20473;-50
2023/08/17 02:22:15;;;;;;;0.40;0.20;;;;;;;20.67;100.00;100355.41;5012584;28;20583;-50
2023/08/17 02:24:41;;;;;;;0.40;0.20;;;;;;;20.70;100.00;100349.81;5012530;28;20448;-50
2023/08/17 02:27:09;;;;;;;0.40;0.20;;;;;;;20.53;100.00;100354.66;4986787;28;20452;-50
2023/08/17 02:29:35;;;;;;;0.40;0.20;;;;;;;20.56;100.00;100351.72;5012442;28;20474;-50
2023/08/17 02:32:02;;;;;;;0.40;0.30;;;;;;;20.74;100.00;100338.78;5011998;28;20451;-50
2023/08/17 02:34:28;;;;;;;0.40;0.20;;;;;;;20.73;100.00;100345.19;5011077;28;20954;-49
2023/08/17 02:36:55;;;;;;;0.40;0.20;;;;;;;20.60;100.00;100342.47;5002909;28;20463;-50
2023/08/17 02:39:21;;;;;;;0.40;0.20;;;;;;;20.79;100.00;100342.91;5006851;28;20455;-50
2023/08/17 02:41:49;;;;;;;0.40;0.20;;;;;;;20.84;100.00;100342.59;5008095;28;20488;-49
2023/08/17 02:44:15;;;;;;;0.40;0.20;;;;;;;20.73;100.00;100345.19;5007044;28;20937;-50
2023/08/17 02:46:42;;;;;;;0.40;0.20;;;;;;;20.60;100.00;100350.56;5012466;28;20454;-49
2023/08/17 02:49:08;;;;;;;0.40;0.20;;;;;;;20.57;100.00;100346.25;5012126;28;20934;-49
2023/08/17 02:51:35;;;;;;;0.40;0.20;;;;;;;20.72;100.00;100354.25;5012548;28;20451;-49
2023/08/17 02:54:01;;;;;;;0.50;0.20;;;;;;;20.89;100.00;100346.69;5011958;28;20972;-50
2023/08/17 02:56:28;;;;;;;0.40;0.20;;;;;;;20.80;100.00;100343.75;5012242;28;20803;-50
2023/08/17 02:58:54;;;;;;;0.40;0.20;;;;;;;20.92;100.00;100342.91;5014734;28;20570;-50
2023/08/17 03:01:21;;;;;;;0.40;0.20;;;;;;;21.05;100.00;100337.50;5015669;28;20555;-50
2023/08/17 03:03:47;;;;;;;0.40;0.30;;;;;;;21.12;100.00;100330.69;5015816;28;20427;-50
2023/08/17 03:06:14;;;;;;;0.40;0.20;;;;;;;21.06;100.00;100331.09;5015842;28;20427;-50
2023/08/17 03:08:40;;;;;;;0.40;0.20;;;;;;;21.13;100.00;100327.00;5015702;28;20466;-50
2023/08/17 03:11:09;;;;;;;0.40;0.20;;;;;;;21.05;100.00;100326.69;5016080;28;20479;-49
2023/08/17 03:13:35;;;;;;;0.40;0.20;;;;;;;21.09;100.00;100326.34;5015532;28;20430;-49
2023/08/17 03:16:02;;;;;;;0.40;0.20;;;;;;;21.12;100.00;100327.97;5015948;28;20444;-50
2023/08/17 03:18:28;;;;;;;0.77;0.60;;;;;;;21.04;100.00;100331.22;5015680;28;20427;-49
2023/08/17 03:20:55;;;;;;;0.40;0.20;;;;;;;20.91;100.00;100327.66;5015555;28;20812;-51
2023/08/17 03:23:21;;;;;;;0.40;0.20;;;;;;;20.85;100.00;100326.28;5015309;28;20423;-49
2023/08/17 03:25:52;;;;;;;0.40;0.20;;;;;;;20.93;100.00;100328.41;5015623;28;20476;-49
2023/08/17 03:28:18;;;;;;;0.40;0.20;;;;;;;20.97;100.00;100328.09;5015184;28;20427;-49
2023/08/17 03:30:45;;;;;;;0.40;0.20;;;;;;;20.97;100.00;100329.94;5015481;28;20483;-49
2023/08/17 03:33:11;;;;;;;0.40;0.30;;;;;;;21.06;100.00;100331.09;5014824;28;21029;-49
2023/08/17 03:35:38;;;;;;;0.40;0.20;;;;;;;20.93;100.00;100336.50;5012451;28;20429;-49
2023/08/17 03:38:04;;;;;;;0.40;0.20;;;;;;;21.00;100.00;100335.13;5002294;28;20452;-49
2023/08/17 03:40:30;;;;;;;0.40;0.20;;;;;;;21.15;100.00;100331.31;5015051;28;20574;-49
2023/08/17 03:42:57;;;;;;;0.40;0.20;;;;;;;21.10;100.00;100329.91;5005194;28;20484;-50
2023/08/17 03:45:23;;;;;;;0.40;0.20;;;;;;;21.14;100.00;100321.50;5015254;28;20459;-50
2023/08/17 03:47:50;;;;;;;0.40;0.20;;;;;;;21.10;100.00;100321.78;5014890;28;20437;-50
2023/08/17 03:50:16;;;;;;;0.40;0.20;;;;;;;21.23;100.00;100328.91;5015017;28;20841;-50
2023/08/17 03:52:43;;;;;;;0.40;0.20;;;;;;;21.21;100.00;100325.47;5014815;28;20473;-50
2023/08/17 03:55:09;;;;;;;0.40;0.20;;;;;;;21.16;100.00;100326.78;5006712;28;20446;-50
2023/08/17 03:57:36;;;;;;;0.50;0.20;;;;;;;21.15;100.00;100331.31;4995762;28;20527;-50
2023/08/17 04:00:06;;;;;;;0.40;0.20;;;;;;;21.19;100.00;100327.41;5014856;28;20463;-50
2023/08/17 04:02:32;;;;;;;0.40;0.20;;;;;;;21.12;100.00;100328.84;5014648;28;20476;-50
2023/08/17 04:04:59;;;;;;;0.40;0.20;;;;;;;20.97;100.00;100328.09;5015054;28;20999;-50
2023/08/17 04:07:26;;;;;;;0.40;0.20;;;;;;;20.99;100.00;100322.59;5014351;28;20956;-50
2023/08/17 04:09:52;;;;;;;0.40;0.20;;;;;;;20.92;100.00;100316.75;5013763;28;20444;-50
2023/08/17 04:12:19;;;;;;;0.40;0.20;;;;;;;20.97;100.00;100322.69;5014587;28;20472;-50
2023/08/17 04:14:45;;;;;;;0.50;0.40;;;;;;;20.82;100.00;100321.06;5014631;28;20499;-50
2023/08/17 04:17:12;;;;;;;0.40;0.20;;;;;;;20.74;100.00;100320.75;5014195;28;20452;-49
2023/08/17 04:19:38;;;;;;;0.40;0.20;;;;;;;20.89;100.00;100326.91;5014222;28;20809;-50
2023/08/17 04:22:05;;;;;;;0.40;0.20;;;;;;;21.09;100.00;100334.44;5016814;28;20468;-50
2023/08/17 04:24:31;;;;;;;0.40;0.20;;;;;;;21.02;100.00;100335.00;5014222;28;20899;-50
2023/08/17 04:26:58;;;;;;;0.40;0.20;;;;;;;20.95;100.00;100338.13;5014223;28;20426;-50
2023/08/17 04:29:24;;;;;;;0.40;0.30;;;;;;;20.99;100.00;100345.06;5014255;28;20459;-50
2023/08/17 04:31:51;;;;;;;0.40;0.20;;;;;;;21.01;100.00;100347.66;5013492;28;20494;-50
2023/08/17 04:34:17;;;;;;;0.40;0.30;;;;;;;20.85;100.00;100353.28;5014006;28;20448;-50
2023/08/17 04:36:44;;;;;;;0.40;0.20;;;;;;;20.84;100.00;100354.28;5007453;28;20957;-49
2023/08/17 04:39:10;;;;;;;0.40;0.20;;;;;;;20.86;100.00;100355.03;5007007;28;20571;-49
2023/08/17 04:41:37;;;;;;;0.40;0.30;;;;;;;20.59;100.00;100354.25;5011290;28;20492;-49
2023/08/17 04:44:03;;;;;;;0.50;0.20;;;;;;;20.48;100.00;100357.66;5007679;28;20459;-49
2023/08/17 04:46:30;;;;;;;0.40;0.20;;;;;;;20.21;100.00;100360.38;4988017;28;20478;-49
2023/08/17 04:48:56;;;;;;;0.40;0.20;;;;;;;20.38;100.00;100361.94;5013662;28;20445;-49
2023/08/17 04:51:22;;;;;;;0.40;0.20;;;;;;;20.54;100.00;100359.06;5013684;28;20465;-49
2023/08/17 04:53:49;;;;;;;0.40;0.20;;;;;;;20.62;100.00;100364.81;5013662;28;20547;-49
2023/08/17 04:56:15;;;;;;;0.40;0.20;;;;;;;20.52;100.00;100367.28;5013783;28;20507;-50
2023/08/17 04:58:42;;;;;;;0.40;0.30;;;;;;;20.33;100.00;100364.94;5013814;28;20449;-50
2023/08/17 05:01:08;;;;;;;0.40;0.20;;;;;;;20.43;100.00;100369.78;5013463;28;20583;-50
2023/08/17 05:03:35;;;;;;;0.40;0.30;;;;;;;20.76;100.00;100377.38;5013387;28;20509;-50
2023/08/17 05:06:03;;;;;;;0.40;0.20;;;;;;;20.97;100.00;100378.59;5013496;28;20834;-50
2023/08/17 05:08:29;;;;;;;0.47;0.20;;;;;;;20.85;100.00;100374.03;5013566;28;20500;-50
2023/08/17 05:10:56;;;;;;;0.50;0.20;;;;;;;21.07;100.00;100376.94;5013536;28;20453;-50
2023/08/17 05:13:22;;;;;;;0.40;0.20;;;;;;;21.09;100.00;100369.59;5013258;28;20540;-50
2023/08/17 05:15:49;;;;;;;0.40;0.20;;;;;;;21.19;100.00;100378.78;5013546;28;20452;-50
2023/08/17 05:18:15;;;;;;;0.40;0.20;;;;;;;21.51;100.00;100373.78;5012949;28;20801;-50
2023/08/17 05:20:41;;;;;;;0.40;0.20;;;;;;;21.74;100.00;100373.97;5012463;28;20989;-50
2023/08/17 05:23:08;;;;;;;0.40;0.30;;;;;;;21.87;100.00;100372.06;5012911;28;20443;-50
2023/08/17 05:25:34;;;;;;;0.40;0.20;;;;;;;21.52;100.00;100378.25;5013178;28;20547;-50
2023/08/17 05:28:01;;;;;;;0.40;0.30;;;;;;;21.45;100.00;100370.69;5013243;28;20822;-50
2023/08/17 05:30:27;;;;;;;0.40;0.30;;;;;;;21.36;100.00;100380.31;5013207;28;20453;-50
2023/08/17 05:32:54;;;;;;;0.40;0.20;;;;;;;21.49;100.00;100381.16;5012728;28;20511;-50
2023/08/17 05:35:20;;;;;;;0.40;0.20;;;;;;;21.78;100.00;100378.16;5010126;28;20449;-50
2023/08/17 05:37:47;;;;;;;0.70;0.70;;;;;;;21.67;100.00;100378.09;4999897;28;20461;-50
2023/08/17 05:40:13;;;;;;;0.40;0.20;;;;;;;21.52;100.00;100378.25;5012762;28;20523;-50
2023/08/17 05:42:40;;;;;;;0.40;0.20;;;;;;;21.37;100.00;100375.75;5003104;28;20476;-50
2023/08/17 05:45:07;;;;;;;0.40;0.20;;;;;;;21.76;100.00;100380.97;5012983;28;20429;-49
2023/08/17 05:47:33;;;;;;;0.40;0.30;;;;;;;21.92;100.00;100383.41;5012631;28;20429;-50
2023/08/17 05:50:00;;;;;;;0.40;0.20;;;;;;;21.56;100.00;100390.56;5012932;28;20519;-50
2023/08/17 05:52:26;;;;;;;0.40;0.20;;;;;;;21.49;100.00;100393.81;5012763;28;20974;-50
2023/08/17 05:54:52;;;;;;;0.40;0.20;;;;;;;21.73;100.00;100394.75;5013082;28;20452;-50
2023/08/17 05:57:19;;;;;;;0.43;0.30;;;;;;;21.63;100.00;100398.22;5012894;28;20824;-50
2023/08/17 05:59:45;;;;;;;0.40;0.20;;;;;;;21.58;100.00;100387.75;5012501;28;20492;-50
2023/08/17 06:02:12;;;;;;;0.40;0.20;;;;;;;21.59;100.00;100398.47;5012241;28;20462;-50
2023/08/17 06:04:38;;;;;;;0.40;0.20;;;;;;;21.56;100.00;100401.38;5012568;28;20423;-50
2023/08/17 06:07:06;;;;;;;0.40;0.20;;;;;;;21.83;100.00;100397.66;5012645;28;20960;-50
2023/08/17 06:09:32;;;;;;;0.40;0.20;;;;;;;21.78;100.00;100402.50;5012684;28;20959;-50
2023/08/17 06:11:58;;;;;;;0.40;0.20;;;;;;;21.93;100.00;100398.72;5011278;28;20564;-50
2023/08/17 06:14:25;;;;;;;0.40;0.30;;;;;;;22.12;100.00;100395.50;5012616;28;20458;-50
2023/08/17 06:16:51;;;;;;;0.40;0.20;;;;;;;22.03;100.00;100401.56;5012383;28;20426;-50
2023/08/17 06:19:18;;;;;;;0.40;0.20;;;;;;;21.88;100.00;100387.34;5012677;28;20470;-50
2023/08/17 06:21:44;;;;;;;0.40;0.20;;;;;;;21.76;100.00;100405.34;5012473;28;20491;-50
2023/08/17 06:24:10;;;;;;;0.40;0.20;;;;;;;21.65;100.00;100415.22;5012582;28;20459;-50
2023/08/17 06:26:37;;;;;;;0.40;0.20;;;;;;;21.63;100.00;100409.03;5012435;28;20453;-50
2023/08/17 06:29:03;;;;;;;0.40;0.20;;;;;;;21.85;100.00;100411.94;5012474;28;20484;-50
2023/08/17 06:31:30;;;;;;;0.40;0.20;;;;;;;21.92;100.00;100406.91;5011965;28;20451;-50
2023/08/17 06:33:57;;;;;;;0.40;0.40;;;;;;;21.60;100.00;100412.84;5015628;28;20456;-50
2023/08/17 06:36:23;;;;;;;0.40;0.20;;;;;;;21.65;100.00;100415.22;5010086;28;20453;-50
2023/08/17 06:38:50;;;;;;;0.40;0.20;;;;;;;21.75;100.00;100417.13;5005640;28;20475;-50
2023/08/17 06:41:17;;;;;;;0.40;0.20;;;;;;;21.63;100.00;100414.47;5016120;28;20497;-50
2023/08/17 06:43:43;;;;;;;0.40;0.20;;;;;;;21.72;100.00;100413.81;4997531;28;20484;-49
2023/08/17 06:46:10;;;;;;;0.40;0.20;;;;;;;21.61;100.00;100413.72;5015854;28;20904;-48
2023/08/17 06:48:36;;;;;;;0.40;0.20;;;;;;;21.88;100.00;100409.84;5016143;28;20495;-48
2023/08/17 06:51:04;;;;;;;0.40;0.20;;;;;;;22.03;100.00;100402.44;5015910;28;20445;-48
2023/08/17 06:53:31;;;;;;;0.40;0.30;;;;;;;22.09;100.00;100407.44;5016086;28;20452;-48
2023/08/17 06:55:57;;;;;;;0.50;0.20;;;;;;;22.27;100.00;100410.59;5016061;28;20523;-49
2023/08/17 06:58:28;;;;;;;0.40;0.20;;;;;;;22.20;100.00;100411.16;5015978;28;20506;-49
2023/08/17 07:00:54;;;;;;;0.40;0.20;;;;;;;21.93;100.00;100409.53;5015451;28;20934;-49
2023/08/17 07:03:21;;;;;;;0.40;0.20;;;;;;;22.20;100.00;100417.44;5015751;28;20925;-48
2023/08/17 07:05:48;;;;;;;0.40;0.20;;;;;;;22.43;100.00;100415.72;5015892;28;20467;-48
2023/08/17 07:08:14;;;;;;;0.40;0.20;;;;;;;22.18;100.00;100404.03;5015730;28;20539;-48
2023/08/17 07:10:40;;;;;;;0.40;0.20;;;;;;;22.43;100.00;100413.03;5015551;28;20507;-48
2023/08/17 07:13:07;;;;;;;0.40;0.20;;;;;;;22.24;100.00;100412.69;5015334;28;20474;-48
2023/08/17 07:15:33;;;;;;;0.40;0.20;;;;;;;22.31;100.00;100411.22;5015467;28;20821;-48
2023/08/17 07:18:00;;;;;;;0.40;0.20;;;;;;;22.14;100.00;100407.97;5015454;28;20448;-48
2023/08/17 07:20:27;;;;;;;0.40;0.20;;;;;;;22.24;99.53;100410.84;5015542;28;20499;-49
2023/08/17 07:22:53;;;;;;;0.47;0.20;;;;;;;22.52;100.00;100406.91;5015275;28;21038;-49
2023/08/17 07:25:19;;;;;;;0.40;0.20;;;;;;;22.28;100.00;100403.34;5015190;28;20934;-49
2023/08/17 07:27:46;;;;;;;0.47;0.20;;;;;;;22.28;100.00;100406.06;5015483;28;20551;-49
2023/08/17 07:30:13;;;;;;;0.40;0.20;;;;;;;22.25;100.00;100406.28;5015023;28;20452;-48
2023/08/17 07:32:39;;;;;;;0.40;0.20;;;;;;;22.61;99.46;100419.72;5015355;28;20911;-51
2023/08/17 07:35:06;;;;;;;0.50;0.30;;;;;;;22.61;99.39;100413.44;5012672;28;20451;-51
2023/08/17 07:37:33;;;;;;;0.40;0.20;;;;;;;22.59;97.85;100419.00;5002740;28;20424;-51
2023/08/17 07:40:03;;;;;;;0.40;0.20;;;;;;;22.67;99.34;100411.16;5015043;28;20496;-51
2023/08/17 07:42:29;;;;;;;0.40;0.20;;;;;;;22.38;98.25;100416.09;5005414;28;20481;-51
2023/08/17 07:44:56;;;;;;;0.40;0.20;;;;;;;22.63;97.19;100415.09;5014315;28;20507;-51
2023/08/17 07:47:22;;;;;;;0.40;0.20;;;;;;;22.77;97.77;100422.16;5015060;28;20456;-52
2023/08/17 07:49:52;;;;;;;0.50;0.20;;;;;;;23.05;97.41;100420.91;5015292;28;20452;-51
2023/08/17 07:52:18;;;;;;;0.50;0.20;;;;;;;22.72;96.77;100408.06;5015015;28;20473;-51
2023/08/17 07:54:45;;;;;;;0.40;0.30;;;;;;;22.98;96.21;100411.50;5015201;28;20925;-51
2023/08/17 07:57:12;;;;;;;0.40;0.20;;;;;;;23.13;96.68;100410.28;5014726;28;20544;-52
2023/08/17 07:59:38;;;;;;;0.50;0.30;;;;;;;23.24;95.40;100404.91;5014937;28;20449;-51
2023/08/17 08:02:05;;;;;;;0.50;0.30;;;;;;;23.02;96.63;100410.28;5014476;28;20546;-51
2023/08/17 08:04:31;;;;;;;0.40;0.20;;;;;;;22.94;96.04;100404.59;5014900;28;20544;-50
2023/08/17 08:06:58;;;;;;;0.40;0.20;;;;;;;22.95;95.61;100407.19;5014558;28;20448;-50
2023/08/17 08:09:24;;;;;;;0.40;0.20;;;;;;;23.25;94.72;100401.19;5014699;28;20453;-51
2023/08/17 08:11:51;;;;;;;0.40;0.30;;;;;;;23.66;92.48;100399.75;5014416;28;20465;-51
2023/08/17 08:14:17;;;;;;;0.50;0.20;;;;;;;23.57;92.57;100403.16;5014792;28;20547;-51
2023/08/17 08:16:44;;;;;;;0.50;0.30;;;;;;;23.82;91.57;100405.66;5014754;28;20459;-51
2023/08/17 08:19:10;;;;;;;0.50;0.20;;;;;;;24.13;91.17;100408.56;5014240;28;20968;-51
2023/08/17 08:21:36;;;;;;;0.50;0.30;;;;;;;24.57;90.44;100398.56;5014281;28;21025;-51
2023/08/17 08:24:03;;;;;;;0.50;0.20;;;;;;;24.46;89.86;100402.19;5014321;28;20452;-51
2023/08/17 08:26:30;;;;;;;0.50;0.30;;;;;;;24.38;90.83;100402.81;5014282;28;20457;-51
2023/08/17 08:28:56;;;;;;;0.50;0.20;;;;;;;24.28;90.09;100398.28;5014465;28;21052;-51
2023/08/17 08:31:23;;;;;;;0.47;0.30;;;;;;;24.38;90.16;100393.78;5014157;28;20555;-51
2023/08/17 08:33:50;;;;;;;0.50;0.30;;;;;;;24.24;90.54;100384.91;5014311;28;20448;-52
2023/08/17 08:36:16;;;;;;;0.40;0.30;;;;;;;24.09;90.22;100388.91;5009421;28;20515;-52
2023/08/17 08:38:43;;;;;;;0.50;0.30;;;;;;;24.33;90.24;100394.19;5003585;28;20459;-51
2023/08/17 08:41:11;;;;;;;0.50;0.30;;;;;;;24.80;89.88;100386.53;5013612;28;20587;-50
2023/08/17 08:43:38;;;;;;;0.50;0.30;;;;;;;24.66;89.70;100385.00;5004835;28;20496;-51
2023/08/17 08:46:05;;;;;;;0.50;0.20;;;;;;;25.07;87.25;100391.47;5014063;28;20456;-52
2023/08/17 08:48:32;;;;;;;0.50;0.20;;;;;;;25.48;87.23;100395.97;5013808;28;20453;-51
2023/08/17 08:51:00;;;;;;;0.50;0.20;;;;;;;24.91;88.44;100391.91;5013678;28;20499;-51
2023/08/17 08:53:55;;;;;;;0.50;0.30;;;;;;;25.00;88.38;100387.56;5013960;28;20823;-51
2023/08/17 08:56:24;;;;;;;0.40;0.20;;;;;;;24.85;88.19;100391.59;5013574;28;20532;-51
2023/08/17 08:58:51;;;;;;;0.50;0.30;;;;;;;25.19;88.63;100393.13;5013356;28;20823;-50
2023/08/17 09:01:21;;;;;;;0.50;0.30;;;;;;;25.11;88.90;100401.13;5013496;28;20519;-51
2023/08/17 09:03:48;;;;;;;0.50;0.30;;;;;;;25.09;89.36;100409.41;5013355;28;20453;-51
2023/08/17 09:06:16;;;;;;;0.50;0.20;;;;;;;25.45;88.15;100395.41;5013785;28;20539;-51
2023/08/17 09:08:44;;;;;;;0.50;0.30;;;;;;;25.59;87.53;100387.72;5013446;28;20462;-52
2023/08/17 09:11:11;;;;;;;0.50;0.30;;;;;;;25.42;86.93;100391.09;5014366;28;20468;-50
2023/08/17 09:13:37;;;;;;;0.50;0.30;;;;;;;25.34;86.62;100396.34;5013268;28;20531;-50
2023/08/17 09:16:04;;;;;;;0.50;0.30;;;;;;;25.28;89.04;100383.28;5013223;28;20459;-50
2023/08/17 09:18:34;;;;;;;0.50;0.30;;;;;;;25.09;88.63;100382.22;5013177;28;20529;-50
2023/08/17 09:21:04;;;;;;;0.50;0.27;;;;;;;25.06;89.87;100378.88;5013286;28;20499;-51
2023/08/17 09:23:30;;;;;;;0.50;0.30;;;;;;;25.02;88.36;100380.16;5013086;28;20963;-50
2023/08/17 09:26:08;;;;;;;0.50;0.23;;;;;;;25.03;88.85;100377.28;5013312;28;20881;-50
2023/08/17 09:28:39;;;;;;;0.50;0.30;;;;;;;25.33;89.21;100389.19;5013125;28;20943;-50
2023/08/17 09:31:05;;;;;;;0.50;0.30;;;;;;;25.86;88.77;100380.81;5013172;28;20882;-51
2023/08/17 09:33:32;;;;;;;0.50;0.30;;;;;;;25.86;86.83;100372.66;5013285;28;20456;-51
2023/08/17 09:36:00;;;;;;;0.50;0.30;;;;;;;25.79;85.25;100375.09;5010248;28;20506;-52
2023/08/17 09:38:27;;;;;;;0.50;0.30;;;;;;;25.72;88.44;100382.06;5000559;28;20789;-51
2023/08/17 09:40:54;;;;;;;0.50;0.23;;;;;;;25.29;88.18;100372.28;5012899;28;20495;-50
2023/08/17 09:43:21;;;;;;;0.50;0.30;;;;;;;25.89;86.77;100361.47;5003510;28;20488;-52
2023/08/17 09:45:49;;;;;;;0.47;0.20;;;;;;;25.97;86.48;100370.66;5013035;28;20453;-51
2023/08/17 09:48:17;;;;;;;0.50;0.20;;;;;;;26.29;86.09;100377.72;5012897;28;20511;-50
2023/08/17 09:50:45;;;;;;;0.50;0.30;;;;;;;26.60;85.93;100366.72;5012969;28;20503;-51
2023/08/17 09:53:16;;;;;;;0.50;0.30;;;;;;;26.69;85.05;100374.88;5013479;28;20552;-50
2023/08/17 09:55:44;;;;;;;0.50;0.30;;;;;;;26.65;84.93;100372.59;5005771;28;20561;-50
2023/08/17 09:58:15;;;;;;;0.50;0.30;;;;;;;26.83;83.96;100374.44;5003072;28;21027;-51
2023/08/17 10:00:47;;;;;;;0.50;0.30;;;;;;;27.08;83.41;100380.31;5012844;28;20496;-52
2023/08/17 10:03:19;;;;;;;0.50;0.30;;;;;;;27.20;82.75;100372.81;5012744;28;20445;-51
2023/08/17 10:05:58;;;;;;;0.50;0.30;;;;;;;26.47;82.83;100377.94;5012692;28;20456;-51
2023/08/17 10:08:30;;;;;;;0.50;0.30;;;;;;;25.78;86.26;100380.66;5012039;28;20526;-51
2023/08/17 10:10:59;;;;;;;0.50;0.30;;;;;;;25.90;85.89;100379.53;5013161;28;21000;-51
2023/08/17 10:13:35;;;;;;;0.50;0.30;;;;;;;25.65;87.18;100384.47;5013276;28;20517;-51
2023/08/17 10:16:06;;;;;;;0.50;0.30;;;;;;;26.29;86.64;100377.72;5013014;28;20444;-51
2023/08/17 10:18:42;;;;;;;0.50;0.30;;;;;;;26.35;86.80;100392.66;5012661;28;20457;-51
2023/08/17 10:21:25;;;;;;;0.50;0.30;;;;;;;26.23;85.47;100390.06;5013426;28;20514;-51
2023/08/17 10:23:52;;;;;;;0.50;0.27;;;;;;;25.92;85.54;100386.59;5013171;28;20941;-51
2023/08/17 10:26:22;;;;;;;0.50;0.30;;;;;;;25.93;87.29;100382.00;5013045;28;20526;-51
2023/08/17 10:28:50;;;;;;;0.50;0.30;;;;;;;26.00;87.49;100377.69;5012852;28;20448;-51
2023/08/17 10:31:16;;;;;;;0.50;0.30;;;;;;;25.58;88.20;100380.56;5012488;28;20512;-51
2023/08/17 10:33:47;;;;;;;0.50;0.30;;;;;;;26.10;86.42;100384.03;5012407;28;20448;-51
2023/08/17 10:36:14;;;;;;;0.50;0.20;;;;;;;26.46;86.68;100384.38;5007740;28;20448;-51
2023/08/17 10:38:41;;;;;;;0.50;0.20;;;;;;;26.35;86.31;100384.50;5001866;28;20977;-51
2023/08/17 10:41:14;;;;;;;0.50;0.30;;;;;;;25.78;86.70;100383.41;5012578;28;20498;-51
2023/08/17 10:43:53;;;;;;;0.50;0.30;;;;;;;26.16;86.33;100383.44;4993823;28;20452;-51
2023/08/17 10:46:20;;;;;;;0.50;0.30;;;;;;;26.84;84.09;100381.59;5012899;28;20445;-51
2023/08/17 10:48:47;;;;;;;0.50;0.23;;;;;;;26.98;83.06;100384.88;5013138;28;20467;-51
2023/08/17 10:51:13;;;;;;;0.50;0.20;;;;;;;26.80;83.12;100382.91;5012443;28;20468;-51
2023/08/17 10:53:43;;;;;;;0.50;0.20;;;;;;;26.78;83.85;100376.75;5012855;28;20518;-51
2023/08/17 10:56:16;;;;;;;0.50;0.30;;;;;;;26.73;83.09;100380.94;5012501;28;20547;-51
2023/08/17 10:58:43;;;;;;;0.50;0.30;;;;;;;26.82;82.83;100374.56;5012857;28;20459;-51
2023/08/17 11:01:10;;;;;;;0.50;0.30;;;;;;;26.73;82.52;100370.03;5012666;28;20554;-51
2023/08/17 11:03:37;;;;;;;0.50;0.30;;;;;;;27.31;81.92;100364.44;5012367;28;20961;-51
2023/08/17 11:06:18;;;;;;;0.50;0.30;;;;;;;26.75;82.15;100354.38;5013067;28;20477;-51
2023/08/17 11:08:54;;;;;;;0.50;0.30;;;;;;;27.07;82.70;100352.16;5012914;28;20551;-51
2023/08/17 11:11:22;;;;;;;0.50;0.30;;;;;;;26.90;83.17;100352.91;5012524;28;20821;-51
2023/08/17 11:13:49;;;;;;;0.50;0.30;;;;;;;27.69;81.76;100352.50;5012533;28;20488;-51
2023/08/17 11:16:22;;;;;;;0.50;0.30;;;;;;;27.91;79.84;100360.25;5012968;28;20551;-51
2023/08/17 11:18:50;;;;;;;0.50;0.30;;;;;;;27.65;82.08;100356.53;5013621;28;20547;-51
2023/08/17 11:21:19;;;;;;;0.50;0.30;;;;;;;27.56;82.80;100357.44;5015837;28;20868;-50